createdAt,value
2023-05-21T10:58:15.189Z,466.88
2023-05-21T10:59:15.179Z,466.88
2023-05-21T11:00:15.209Z,466.88
2023-05-21T11:01:15.177Z,472.50
2023-05-21T11:02:15.167Z,472.50
2023-05-21T11:03:15.165Z,472.50
2023-05-21T11:04:15.093Z,472.50
2023-05-21T11:05:15.091Z,478.13
2023-05-21T11:06:15.077Z,478.13
2023-05-21T11:07:15.068Z,483.75
2023-05-21T11:08:15.059Z,478.13
2023-05-21T11:09:15.044Z,478.13
2023-05-21T11:10:15.037Z,478.13
2023-05-21T11:11:15.003Z,478.13
2023-05-21T11:12:15.025Z,478.13
2023-05-21T11:13:15.021Z,483.75
2023-05-21T11:14:14.978Z,478.13
2023-05-21T11:15:14.982Z,489.38
2023-05-21T11:16:14.972Z,500.63
2023-05-21T11:17:15.085Z,511.88
2023-05-21T11:18:14.970Z,534.38
2023-05-21T11:19:14.944Z,540.00
2023-05-21T11:20:14.973Z,545.63
2023-05-21T11:21:14.908Z,556.88
2023-05-21T11:22:14.886Z,556.88
2023-05-21T11:23:14.899Z,556.88
2023-05-21T11:24:14.883Z,562.50
2023-05-21T11:25:14.845Z,585.00
2023-05-21T11:26:14.840Z,596.25
2023-05-21T11:27:14.854Z,613.13
2023-05-21T11:28:14.851Z,618.75
2023-05-21T11:29:14.814Z,613.13
2023-05-21T11:30:14.834Z,613.13
2023-05-21T11:31:14.820Z,613.13
2023-05-21T11:32:14.781Z,624.38
2023-05-21T11:33:14.795Z,613.13
2023-05-21T11:34:14.796Z,618.75
2023-05-21T11:35:14.740Z,641.25
2023-05-21T11:36:14.752Z,652.50
2023-05-21T11:37:14.727Z,652.50
2023-05-21T11:38:14.743Z,641.25
2023-05-21T11:39:14.693Z,669.38
2023-05-21T11:40:14.713Z,675.00
2023-05-21T11:41:14.694Z,669.38
2023-05-21T11:42:14.667Z,675.00
2023-05-21T11:43:14.665Z,691.88
2023-05-21T11:44:14.652Z,703.13
2023-05-21T11:45:14.653Z,736.88
2023-05-21T11:46:14.673Z,759.38
2023-05-21T11:47:14.632Z,759.38
2023-05-21T11:48:14.618Z,770.63
2023-05-21T11:49:14.590Z,759.38
2023-05-21T11:50:14.651Z,781.88
2023-05-21T11:51:14.576Z,781.88
2023-05-21T11:52:14.583Z,787.50
2023-05-21T11:53:14.587Z,781.88
2023-05-21T11:54:14.565Z,781.88
2023-05-21T11:55:14.527Z,770.63
2023-05-21T11:56:14.528Z,776.25
2023-05-21T11:57:14.529Z,770.63
2023-05-21T11:58:14.538Z,770.63
2023-05-21T11:59:17.146Z,770.63
2023-05-21T12:00:14.498Z,765.00
2023-05-21T12:01:14.488Z,765.00
2023-05-21T12:02:14.470Z,781.88
2023-05-21T12:03:14.843Z,765.00
2023-05-21T12:04:14.487Z,765.00
2023-05-21T12:05:14.442Z,765.00
2023-05-21T12:06:14.499Z,765.00
2023-05-21T12:07:14.431Z,759.38
2023-05-21T12:08:14.417Z,759.38
2023-05-21T12:09:14.390Z,753.75
2023-05-21T12:10:14.386Z,759.38
2023-05-21T12:11:14.389Z,765.00
2023-05-21T12:12:14.396Z,759.38
2023-05-21T12:13:14.388Z,759.38
2023-05-21T12:14:14.370Z,753.75
2023-05-21T12:15:14.354Z,748.13
2023-05-21T12:16:14.367Z,742.50
2023-05-21T12:17:14.332Z,748.13
2023-05-21T12:18:14.351Z,753.75
2023-05-21T12:19:14.339Z,770.63
2023-05-21T12:20:14.298Z,770.63
2023-05-21T12:21:14.277Z,776.25
2023-05-21T12:22:14.289Z,781.88
2023-05-21T12:23:14.267Z,793.13
2023-05-21T12:24:14.258Z,804.38
2023-05-21T12:25:14.254Z,821.25
2023-05-21T12:26:14.233Z,832.50
2023-05-21T12:27:14.217Z,843.75
2023-05-21T12:28:14.230Z,843.75
2023-05-21T12:29:14.201Z,860.63
2023-05-21T12:30:14.194Z,877.50
2023-05-21T12:31:14.208Z,871.88
2023-05-21T12:32:14.223Z,877.50
2023-05-21T12:33:14.194Z,877.50
2023-05-21T12:34:14.181Z,888.75
2023-05-21T12:35:14.163Z,894.38
2023-05-21T12:36:14.153Z,905.63
2023-05-21T12:37:14.116Z,905.63
2023-05-21T12:38:14.186Z,900.00
2023-05-21T12:39:14.141Z,888.75
2023-05-21T12:40:14.127Z,888.75
2023-05-21T12:41:14.106Z,883.13
2023-05-21T12:42:14.081Z,883.13
2023-05-21T12:43:14.094Z,888.75
2023-05-21T12:44:14.063Z,888.75
2023-05-21T12:45:14.039Z,888.75
2023-05-21T12:46:14.068Z,888.75
2023-05-21T12:47:14.037Z,888.75
2023-05-21T12:48:14.052Z,888.75
2023-05-21T12:49:14.027Z,888.75
2023-05-21T12:50:14.202Z,900.00
2023-05-21T12:51:14.006Z,916.88
2023-05-21T12:52:14.043Z,933.75
2023-05-21T12:53:13.989Z,950.63
2023-05-21T12:54:13.980Z,967.50
2023-05-21T12:55:13.960Z,961.88
2023-05-21T12:56:13.967Z,945.00
2023-05-21T12:57:13.928Z,945.00
2023-05-21T12:58:13.950Z,956.25
2023-05-21T12:59:13.906Z,984.38
2023-05-21T13:00:13.924Z,1035.00
2023-05-21T13:01:13.943Z,1063.13
2023-05-21T13:02:13.890Z,1130.63
2023-05-21T13:03:13.996Z,1299.38
2023-05-21T13:04:13.903Z,1586.25
2023-05-21T13:05:13.896Z,1490.63
2023-05-21T13:06:13.923Z,1625.63
2023-05-21T13:07:13.852Z,1839.38
2023-05-21T13:08:13.887Z,1760.63
2023-05-21T13:09:13.833Z,1800.00
2023-05-21T13:10:13.848Z,1850.63
2023-05-21T13:11:13.819Z,1788.75
2023-05-21T13:12:13.790Z,1721.25
2023-05-21T13:13:13.785Z,1698.75
2023-05-21T13:14:13.821Z,1788.75
2023-05-21T13:15:13.788Z,1906.88
2023-05-21T13:16:13.827Z,2109.38
2023-05-21T13:17:13.765Z,2283.75
2023-05-21T13:18:13.753Z,2278.13
2023-05-21T13:19:13.776Z,2182.50
2023-05-21T13:20:13.736Z,2311.88
2023-05-21T13:21:13.712Z,2227.50
2023-05-21T13:22:13.776Z,2261.25
2023-05-21T13:23:13.710Z,2098.13
2023-05-21T13:24:13.692Z,2480.63
2023-05-21T13:25:13.726Z,2362.50
2023-05-21T13:26:13.673Z,2463.75
2023-05-21T13:27:13.706Z,2621.25
2023-05-21T13:28:13.725Z,2857.50
2023-05-21T13:29:13.649Z,2840.63
2023-05-21T13:30:13.685Z,2745.00
2023-05-21T13:31:13.639Z,2716.88
2023-05-21T13:32:13.626Z,2683.13
2023-05-21T13:33:13.692Z,2711.25
2023-05-21T13:34:13.604Z,2711.25
2023-05-21T13:35:13.611Z,2565.00
2023-05-21T13:36:13.611Z,2548.13
2023-05-21T13:37:13.587Z,2536.88
2023-05-21T13:38:13.609Z,2435.63
2023-05-21T13:39:13.572Z,2317.50
2023-05-21T13:40:13.581Z,2148.75
2023-05-21T13:41:13.560Z,2058.75
2023-05-21T13:42:13.569Z,1918.13
2023-05-21T13:43:13.589Z,2058.75
2023-05-21T13:44:13.558Z,2081.25
2023-05-21T13:45:13.557Z,2036.25
2023-05-21T13:46:13.536Z,1828.13
2023-05-21T13:47:13.549Z,1895.63
2023-05-21T13:48:13.612Z,1985.63
2023-05-21T13:49:13.519Z,1873.13
2023-05-21T13:50:13.496Z,1856.25
2023-05-21T13:51:19.874Z,1912.50
2023-05-21T13:52:13.515Z,2008.13
2023-05-21T13:53:13.542Z,1996.88
2023-05-21T13:54:13.498Z,1996.88
2023-05-21T13:55:13.476Z,2002.50
2023-05-21T13:56:13.468Z,2092.50
2023-05-21T13:57:13.487Z,2193.75
2023-05-21T13:58:13.496Z,2098.13
2023-05-21T13:59:13.457Z,2075.63
2023-05-21T14:00:13.457Z,2103.75
2023-05-21T14:01:13.501Z,2019.38
2023-05-21T14:02:13.487Z,1755.00
2023-05-21T14:03:13.506Z,1546.88
2023-05-21T14:04:13.439Z,1406.25
2023-05-21T14:05:13.510Z,1321.88
2023-05-21T14:06:13.438Z,1344.38
2023-05-21T14:07:13.448Z,1350.00
2023-05-21T14:08:13.410Z,1496.25
2023-05-21T14:09:13.410Z,1665.00
2023-05-21T14:10:13.413Z,1749.38
2023-05-21T14:11:13.408Z,1777.50
2023-05-21T14:12:13.401Z,1338.75
2023-05-21T14:13:19.456Z,1901.25
2023-05-21T14:14:13.386Z,2019.38
2023-05-21T14:15:13.418Z,2148.75
2023-05-21T14:16:13.474Z,1980.00
2023-05-21T14:17:13.365Z,1850.63
2023-05-21T14:18:13.369Z,1788.75
2023-05-21T14:19:13.445Z,1968.75
2023-05-21T14:20:13.381Z,2070.00
2023-05-21T14:21:13.340Z,2176.88
2023-05-21T14:22:13.337Z,2165.63
2023-05-21T14:23:13.365Z,2047.50
2023-05-21T14:24:13.328Z,2362.50
2023-05-21T14:25:13.355Z,2435.63
2023-05-21T14:26:13.317Z,2441.25
2023-05-21T14:27:15.248Z,2328.75
2023-05-21T14:28:13.329Z,2266.88
2023-05-21T14:29:13.344Z,1260.00
2023-05-21T14:30:13.313Z,1051.88
2023-05-21T14:31:13.321Z,1102.50
2023-05-21T14:32:13.384Z,1906.88
2023-05-21T14:33:13.428Z,1546.88
2023-05-21T14:34:13.279Z,1923.75
2023-05-21T14:35:13.288Z,1822.50
2023-05-21T14:36:13.263Z,911.25
2023-05-21T14:37:13.287Z,900.00
2023-05-21T14:38:13.252Z,832.50
2023-05-21T14:45:50.134Z,810.00
2023-05-21T14:46:50.022Z,933.75
2023-05-21T14:47:50.041Z,1108.13
2023-05-21T14:48:50.005Z,1681.88
2023-05-21T14:49:51.511Z,1693.13
2023-05-21T14:50:50.002Z,1625.63
2023-05-21T14:51:50.000Z,1575.00
2023-05-21T14:52:49.957Z,1614.38
2023-05-21T14:53:49.958Z,1170.00
2023-05-21T14:54:49.960Z,1620.00
2023-05-21T14:55:49.965Z,1676.25
2023-05-21T14:56:49.957Z,1822.50
2023-05-21T14:57:49.944Z,1783.13
2023-05-21T14:58:49.921Z,1676.25
2023-05-21T14:59:49.926Z,1518.75
2023-05-21T15:00:49.897Z,1462.50
2023-05-21T15:01:49.960Z,1473.75
2023-05-21T15:02:49.991Z,1620.00
2023-05-21T15:03:49.971Z,1524.38
2023-05-21T15:04:49.862Z,1687.50
2023-05-21T15:05:49.867Z,1575.00
2023-05-21T15:06:49.864Z,1006.88
2023-05-21T15:07:49.855Z,1018.13
2023-05-21T15:08:49.855Z,950.63
2023-05-21T15:09:49.849Z,916.88
2023-05-21T15:10:49.835Z,1181.25
2023-05-21T15:11:49.815Z,1136.25
2023-05-21T15:12:49.832Z,1636.88
2023-05-21T15:13:49.817Z,1293.75
2023-05-21T15:14:49.785Z,1383.75
2023-05-21T15:17:20.654Z,1023.75
2023-05-21T15:29:52.383Z,928.13
2023-05-21T15:30:52.386Z,1445.63
2023-05-21T15:32:54.922Z,1721.25
2023-05-21T15:33:54.897Z,978.75
2023-05-21T15:39:27.224Z,894.38
2023-05-21T15:40:27.438Z,1243.13
2023-05-21T15:41:27.164Z,1580.63
2023-05-21T15:42:27.180Z,1721.25
2023-05-21T15:43:27.178Z,1681.88
2023-05-21T15:44:27.152Z,1462.50
2023-05-21T15:45:27.140Z,1006.88
2023-05-21T15:46:27.164Z,900.00
2023-05-21T15:51:09.182Z,883.13
2023-05-21T15:52:09.151Z,826.88
2023-05-21T15:52:58.766Z,849.38
2023-05-21T15:53:58.752Z,866.25
2023-05-21T16:05:44.145Z,916.88
2023-05-21T16:06:44.129Z,1057.50
2023-05-21T16:07:44.110Z,1164.38
2023-05-21T16:08:44.127Z,1209.38
2023-05-21T16:09:44.092Z,1468.13
2023-05-21T16:10:44.122Z,1698.75
2023-05-21T16:11:44.080Z,1687.50
2023-05-21T16:12:44.076Z,1485.00
2023-05-21T16:13:44.075Z,1321.88
2023-05-21T16:14:44.080Z,1310.63
2023-05-21T16:15:44.049Z,1395.00
2023-05-21T16:16:44.073Z,1428.75
2023-05-21T16:17:44.043Z,1333.13
2023-05-21T16:18:44.098Z,1265.63
2023-05-21T16:19:44.025Z,1310.63
2023-05-21T16:20:44.017Z,1423.13
2023-05-21T16:21:44.006Z,1265.63
2023-05-21T16:22:43.982Z,1181.25
2023-05-21T16:23:43.969Z,1080.00
2023-05-21T16:24:43.973Z,1141.88
2023-05-21T16:25:43.974Z,1125.00
2023-05-21T16:26:43.970Z,1164.38
2023-05-21T16:27:43.957Z,1125.00
2023-05-21T16:28:43.942Z,1023.75
2023-05-21T16:29:43.951Z,990.00
